createdAt,value
2022-10-19T00:00:08.122Z,39.79
2022-10-19T00:01:08.116Z,47.77
2022-10-19T00:02:08.166Z,43.91
2022-10-19T00:03:08.123Z,39.89
2022-10-19T00:04:08.964Z,40.46
2022-10-19T00:05:08.090Z,48.12
2022-10-19T00:06:08.072Z,44.82
2022-10-19T00:07:08.065Z,45.50
2022-10-19T00:08:08.089Z,41.77
2022-10-19T00:09:08.091Z,42.53
2022-10-19T00:10:08.043Z,43.28
2022-10-19T00:11:08.040Z,42.56
2022-10-19T00:12:08.034Z,55.35
2022-10-19T00:13:08.020Z,42.25
2022-10-19T00:14:08.053Z,46.16
2022-10-19T00:15:08.005Z,41.97
2022-10-19T00:16:10.643Z,42.42
2022-10-19T00:17:08.992Z,44.26
2022-10-19T00:18:08.021Z,42.33
2022-10-19T00:19:08.001Z,39.96
2022-10-19T00:20:07.995Z,42.36
2022-10-19T00:21:07.966Z,51.14
2022-10-19T00:22:10.330Z,42.96
2022-10-19T00:23:08.981Z,55.22
2022-10-19T00:24:07.940Z,40.26
2022-10-19T00:25:07.931Z,41.60
2022-10-19T00:26:07.960Z,39.60
2022-10-19T00:27:07.918Z,41.30
2022-10-19T00:28:07.916Z,47.13
2022-10-19T00:29:07.981Z,44.94
2022-10-19T00:30:07.899Z,46.00
2022-10-19T00:31:07.886Z,41.14
2022-10-19T00:32:07.881Z,51.32
2022-10-19T00:33:07.871Z,39.48
2022-10-19T00:34:07.895Z,45.36
2022-10-19T00:35:07.857Z,46.43
2022-10-19T00:36:07.846Z,46.79
2022-10-19T00:37:07.842Z,49.88
2022-10-19T00:38:07.841Z,40.22
2022-10-19T00:39:07.856Z,39.22
2022-10-19T00:40:07.829Z,42.22
2022-10-19T00:41:07.812Z,39.39
2022-10-19T00:42:07.797Z,53.79
2022-10-19T00:43:07.822Z,54.83
2022-10-19T00:44:07.807Z,55.95
2022-10-19T00:45:07.785Z,57.15
2022-10-19T00:46:07.771Z,57.12
2022-10-19T00:47:07.763Z,56.73
2022-10-19T00:48:07.758Z,56.17
2022-10-19T00:49:10.034Z,56.34
2022-10-19T00:50:07.746Z,56.37
2022-10-19T00:51:07.730Z,56.39
2022-10-19T00:52:07.729Z,55.93
2022-10-19T00:53:07.721Z,55.86
2022-10-19T00:54:07.738Z,56.12
2022-10-19T00:55:07.705Z,54.02
2022-10-19T00:56:07.696Z,45.86
2022-10-19T00:57:07.690Z,42.11
2022-10-19T00:58:07.677Z,39.64
2022-10-19T00:59:07.714Z,40.67
2022-10-19T01:00:07.672Z,38.27
2022-10-19T01:01:07.762Z,43.38
2022-10-19T01:02:07.650Z,41.20
2022-10-19T01:03:07.652Z,50.69
2022-10-19T01:04:07.663Z,42.61
2022-10-19T01:05:07.631Z,56.06
2022-10-19T01:06:07.614Z,48.57
2022-10-19T01:07:07.616Z,43.99
2022-10-19T01:08:07.607Z,44.18
2022-10-19T01:09:07.635Z,49.53
2022-10-19T01:10:07.588Z,44.54
2022-10-19T01:11:07.578Z,44.95
2022-10-19T01:12:07.573Z,48.40
2022-10-19T01:13:07.568Z,50.10
2022-10-19T01:14:07.587Z,44.63
2022-10-19T01:15:07.551Z,48.90
2022-10-19T01:16:07.543Z,43.40
2022-10-19T01:17:07.532Z,50.49
2022-10-19T01:18:07.523Z,53.98
2022-10-19T01:19:07.561Z,46.88
2022-10-19T01:20:07.514Z,46.40
2022-10-19T01:21:07.511Z,41.71
2022-10-19T01:22:07.509Z,54.21
2022-10-19T01:23:07.498Z,55.33
2022-10-19T01:24:07.514Z,56.55
2022-10-19T01:25:07.485Z,55.22
2022-10-19T01:26:07.484Z,55.38
2022-10-19T01:27:07.468Z,54.56
2022-10-19T01:28:07.456Z,55.14
2022-10-19T01:29:07.512Z,55.27
2022-10-19T01:30:07.441Z,50.84
2022-10-19T01:31:07.428Z,42.88
2022-10-19T01:32:07.421Z,38.42
2022-10-19T01:33:07.407Z,42.30
2022-10-19T01:34:07.437Z,55.10
2022-10-19T01:35:07.395Z,48.62
2022-10-19T01:36:07.387Z,48.60
2022-10-19T01:37:07.383Z,39.54
2022-10-19T01:38:07.374Z,46.99
2022-10-19T01:39:07.378Z,42.74
2022-10-19T01:40:07.388Z,45.42
2022-10-19T01:41:07.362Z,45.64
2022-10-19T01:42:07.343Z,39.08
2022-10-19T01:43:07.344Z,41.59
2022-10-19T01:44:07.323Z,40.21
2022-10-19T01:45:07.338Z,41.23
2022-10-19T01:46:07.304Z,40.96
2022-10-19T01:47:07.304Z,40.77
2022-10-19T01:48:07.303Z,43.39
2022-10-19T01:49:07.289Z,42.98
2022-10-19T01:50:07.297Z,47.22
2022-10-19T01:51:07.272Z,54.78
2022-10-19T01:52:07.271Z,47.54
2022-10-19T01:53:07.250Z,46.75
2022-10-19T01:54:07.242Z,44.64
2022-10-19T01:55:07.257Z,45.56
2022-10-19T01:56:07.231Z,43.90
2022-10-19T01:57:07.225Z,44.25
2022-10-19T01:58:09.477Z,43.38
2022-10-19T01:59:07.202Z,45.70
2022-10-19T02:00:07.230Z,45.13
2022-10-19T02:01:07.306Z,43.77
2022-10-19T02:02:07.181Z,53.17
2022-10-19T02:03:07.188Z,42.51
2022-10-19T02:04:07.188Z,40.64
2022-10-19T02:05:07.197Z,43.16
2022-10-19T02:06:07.155Z,48.66
2022-10-19T02:07:07.157Z,46.45
2022-10-19T02:08:07.148Z,51.02
2022-10-19T02:09:07.138Z,47.07
2022-10-19T02:10:07.225Z,44.70
2022-10-19T02:11:07.119Z,43.24
2022-10-19T02:12:07.107Z,46.77
2022-10-19T02:13:07.099Z,47.56
2022-10-19T02:14:07.097Z,48.01
2022-10-19T02:15:07.112Z,51.05
2022-10-19T02:16:07.075Z,47.14
2022-10-19T02:17:07.076Z,44.56
2022-10-19T02:18:07.066Z,40.17
2022-10-19T02:19:07.053Z,41.72
2022-10-19T02:20:07.099Z,40.89
2022-10-19T02:21:07.039Z,48.23
2022-10-19T02:22:07.028Z,49.34
2022-10-19T02:23:07.041Z,55.04
2022-10-19T02:24:07.023Z,44.81
2022-10-19T02:25:07.036Z,50.91
2022-10-19T02:26:07.003Z,45.30
2022-10-19T02:27:06.987Z,48.43
2022-10-19T02:28:06.979Z,54.53
2022-10-19T02:29:06.979Z,58.28
2022-10-19T02:30:06.997Z,50.97
2022-10-19T02:31:06.959Z,48.16
2022-10-19T02:32:06.955Z,46.14
2022-10-19T02:33:06.944Z,44.36
2022-10-19T02:34:06.941Z,43.92
2022-10-19T02:35:06.960Z,48.17
2022-10-19T02:36:06.928Z,49.03
2022-10-19T02:37:06.916Z,42.71
2022-10-19T02:38:06.907Z,48.52
2022-10-19T02:39:06.902Z,51.81
2022-10-19T02:40:06.933Z,51.35
2022-10-19T02:41:06.883Z,45.91
2022-10-19T02:42:06.876Z,40.50
2022-10-19T02:43:06.871Z,46.11
2022-10-19T02:44:06.864Z,47.53
2022-10-19T02:45:06.861Z,49.49
2022-10-19T02:46:06.877Z,47.40
2022-10-19T02:47:06.841Z,46.65
2022-10-19T02:48:06.847Z,44.78
2022-10-19T02:49:06.835Z,44.48
2022-10-19T02:50:06.821Z,45.81
2022-10-19T02:51:06.843Z,51.67
2022-10-19T02:52:06.804Z,50.54
2022-10-19T02:53:06.795Z,48.35
2022-10-19T02:54:06.791Z,46.63
2022-10-19T02:55:06.788Z,47.30
2022-10-19T02:56:06.803Z,54.88
2022-10-19T02:57:06.773Z,45.04
2022-10-19T02:58:06.762Z,50.80
2022-10-19T02:59:06.755Z,53.47
2022-10-19T03:00:06.757Z,45.52
2022-10-19T03:01:06.815Z,49.06
2022-10-19T03:02:06.733Z,55.49
2022-10-19T03:03:06.729Z,50.08
2022-10-19T03:04:06.717Z,56.39
2022-10-19T03:05:06.733Z,50.11
2022-10-19T03:06:06.742Z,53.25
2022-10-19T03:07:06.704Z,54.27
2022-10-19T03:08:06.688Z,52.48
2022-10-19T03:09:06.678Z,49.27
2022-10-19T03:10:06.675Z,50.40
2022-10-19T03:11:06.700Z,46.97
2022-10-19T03:12:06.659Z,52.85
2022-10-19T03:13:06.658Z,56.00
2022-10-19T03:14:06.661Z,49.30
2022-10-19T03:15:06.629Z,47.95
2022-10-19T03:16:06.663Z,44.68
2022-10-19T03:17:06.630Z,53.02
2022-10-19T03:18:06.610Z,58.55
2022-10-19T03:19:06.602Z,58.21
2022-10-19T03:20:06.597Z,58.09
2022-10-19T03:21:06.612Z,60.60
2022-10-19T03:22:06.576Z,59.03
2022-10-19T03:23:06.573Z,58.74
2022-10-19T03:24:07.565Z,59.87
2022-10-19T03:25:06.560Z,61.42
2022-10-19T03:26:08.749Z,57.19
2022-10-19T03:27:06.557Z,57.14
2022-10-19T03:28:06.546Z,58.36
2022-10-19T03:29:06.536Z,58.36
2022-10-19T03:30:06.521Z,54.36
2022-10-19T03:31:06.542Z,53.93
2022-10-19T03:32:06.506Z,53.53
2022-10-19T03:33:06.514Z,56.97
2022-10-19T03:34:06.498Z,52.18
2022-10-19T03:35:06.487Z,54.65
2022-10-19T03:36:06.506Z,56.35
2022-10-19T03:37:06.496Z,50.30
2022-10-19T03:38:06.469Z,51.58
2022-10-19T03:39:06.456Z,58.13
2022-10-19T03:40:06.456Z,53.99
2022-10-19T03:41:06.442Z,59.64
2022-10-19T03:42:06.469Z,54.94
2022-10-19T03:43:06.427Z,56.01
2022-10-19T03:44:06.423Z,53.55
2022-10-19T03:45:06.417Z,54.43
2022-10-19T03:46:06.408Z,50.00
2022-10-19T03:47:06.426Z,54.38
2022-10-19T03:48:06.385Z,53.60
2022-10-19T03:49:06.381Z,55.77
2022-10-19T03:50:06.402Z,52.76
2022-10-19T03:51:06.370Z,51.02
2022-10-19T03:52:06.383Z,52.31
2022-10-19T03:53:06.369Z,60.37
2022-10-19T03:54:06.349Z,56.53
2022-10-19T03:55:06.340Z,54.10
2022-10-19T03:56:06.331Z,52.32
2022-10-19T03:57:06.356Z,51.60
2022-10-19T03:58:06.312Z,56.78
2022-10-19T03:59:06.307Z,56.44
2022-10-19T04:00:06.353Z,52.85
2022-10-19T04:01:06.329Z,51.04
2022-10-19T04:02:06.312Z,55.26
2022-10-19T04:03:06.281Z,58.27
2022-10-19T04:04:06.271Z,55.80
2022-10-19T04:05:06.267Z,56.43
2022-10-19T04:06:06.279Z,59.41
2022-10-19T04:07:06.243Z,57.19
2022-10-19T04:08:06.240Z,57.79
2022-10-19T04:09:06.224Z,59.11
2022-10-19T04:10:06.227Z,58.02
2022-10-19T04:11:06.240Z,58.11
2022-10-19T04:12:06.201Z,55.41
2022-10-19T04:13:06.198Z,52.50
2022-10-19T04:14:06.260Z,55.58
2022-10-19T04:15:38.141Z,54.22
2022-10-19T04:16:06.177Z,55.24
2022-10-19T04:17:06.167Z,57.72
2022-10-19T04:18:06.173Z,56.05
2022-10-19T04:19:06.152Z,54.43
2022-10-19T04:20:06.137Z,54.33
2022-10-19T04:21:06.176Z,54.44
2022-10-19T04:22:06.132Z,50.46
2022-10-19T04:23:06.205Z,55.59
2022-10-19T04:24:06.106Z,53.25
2022-10-19T04:25:07.100Z,61.17
2022-10-19T04:26:06.127Z,56.50
2022-10-19T04:27:06.092Z,57.80
2022-10-19T04:28:06.083Z,58.55
2022-10-19T04:29:06.163Z,55.72
2022-10-19T04:30:06.069Z,58.70
2022-10-19T04:31:06.104Z,61.80
2022-10-19T04:32:06.052Z,59.67
2022-10-19T04:33:06.089Z,57.61
2022-10-19T04:34:06.037Z,56.80
2022-10-19T04:35:06.062Z,61.28
2022-10-19T04:36:06.033Z,56.59
2022-10-19T04:37:06.015Z,61.09
2022-10-19T04:38:06.012Z,57.63
2022-10-19T04:39:06.001Z,56.88
2022-10-19T04:40:06.005Z,58.91
2022-10-19T04:41:06.015Z,58.42
2022-10-19T04:42:05.974Z,59.34
2022-10-19T04:43:05.983Z,61.26
2022-10-19T04:44:05.961Z,58.96
2022-10-19T04:45:05.950Z,59.64
2022-10-19T04:46:05.968Z,59.43
2022-10-19T04:47:05.934Z,58.52
2022-10-19T04:48:05.925Z,57.46
2022-10-19T04:49:05.921Z,58.15
2022-10-19T04:50:05.920Z,58.20
2022-10-19T04:51:05.931Z,52.85
2022-10-19T04:52:05.902Z,57.68
2022-10-19T04:53:05.897Z,56.78
2022-10-19T04:54:05.897Z,54.66
2022-10-19T04:55:05.880Z,56.21
2022-10-19T04:56:05.906Z,56.68
2022-10-19T04:57:05.864Z,56.78
2022-10-19T04:58:05.854Z,56.73
2022-10-19T04:59:05.847Z,57.01
2022-10-19T05:00:05.837Z,54.28
2022-10-19T05:01:05.908Z,59.83
2022-10-19T05:02:05.826Z,59.00
2022-10-19T05:03:05.813Z,54.79
2022-10-19T05:04:05.808Z,60.46
2022-10-19T05:05:05.802Z,60.39
2022-10-19T05:06:05.829Z,59.20
2022-10-19T05:07:05.781Z,58.67
2022-10-19T05:08:05.773Z,61.98
2022-10-19T05:09:05.770Z,58.68
2022-10-19T05:10:05.760Z,60.54
2022-10-19T05:11:05.773Z,59.51
2022-10-19T05:12:05.742Z,61.74
2022-10-19T05:13:05.738Z,57.85
2022-10-19T05:14:05.726Z,60.11
2022-10-19T05:15:05.722Z,61.54
2022-10-19T05:16:05.738Z,59.38
2022-10-19T05:17:05.705Z,57.44
2022-10-19T05:18:05.705Z,59.78
2022-10-19T05:19:05.684Z,58.26
2022-10-19T05:20:05.677Z,56.08
2022-10-19T05:21:05.702Z,56.94
2022-10-19T05:22:05.665Z,60.25
2022-10-19T05:23:07.292Z,57.89
2022-10-19T05:24:05.655Z,58.59
2022-10-19T05:25:05.639Z,57.07
2022-10-19T05:26:05.657Z,58.04
2022-10-19T05:27:05.622Z,61.22
2022-10-19T05:28:05.622Z,55.54
2022-10-19T05:29:05.636Z,58.10
2022-10-19T05:30:05.595Z,57.01
2022-10-19T05:31:05.623Z,59.21
2022-10-19T05:32:05.581Z,58.03
2022-10-19T05:33:05.576Z,58.41
2022-10-19T05:34:05.574Z,57.74
2022-10-19T05:35:05.595Z,55.93
2022-10-19T05:36:05.552Z,57.12
2022-10-19T05:37:05.546Z,56.55
2022-10-19T05:38:05.569Z,58.85
2022-10-19T05:39:05.533Z,56.45
2022-10-19T05:40:05.553Z,53.88
2022-10-19T05:41:05.520Z,59.55
2022-10-19T05:42:05.521Z,53.49
2022-10-19T05:43:05.505Z,56.07
2022-10-19T05:44:05.497Z,53.22
2022-10-19T05:45:05.496Z,59.10
2022-10-19T05:46:05.505Z,51.17
2022-10-19T05:47:05.474Z,54.67
2022-10-19T05:48:05.470Z,56.70
2022-10-19T05:49:05.470Z,55.69
2022-10-19T05:50:05.452Z,54.38
2022-10-19T05:51:05.478Z,55.89
2022-10-19T05:52:05.443Z,52.93
2022-10-19T05:53:05.432Z,55.04
2022-10-19T05:54:05.429Z,57.13
2022-10-19T05:55:05.420Z,58.06
2022-10-19T05:56:05.442Z,50.89
2022-10-19T05:57:05.399Z,58.31
2022-10-19T05:58:05.396Z,53.98
2022-10-19T05:59:05.383Z,54.31
2022-10-19T06:00:06.382Z,53.09
2022-10-19T06:01:05.400Z,55.30
2022-10-19T06:02:05.406Z,57.85
2022-10-19T06:03:05.355Z,57.88
2022-10-19T06:04:05.381Z,58.24
2022-10-19T06:05:05.342Z,56.14
2022-10-19T06:06:05.366Z,58.01
2022-10-19T06:07:05.333Z,55.11
2022-10-19T06:08:05.320Z,60.86
2022-10-19T06:09:05.314Z,56.32
2022-10-19T06:10:05.309Z,57.59
2022-10-19T06:11:05.320Z,58.05
2022-10-19T06:12:05.290Z,55.02
2022-10-19T06:13:05.294Z,56.59
2022-10-19T06:14:05.271Z,57.63
2022-10-19T06:15:05.262Z,57.38
2022-10-19T06:16:05.280Z,57.32
2022-10-19T06:17:06.255Z,54.09
2022-10-19T06:18:05.250Z,57.55
2022-10-19T06:19:05.237Z,53.41
2022-10-19T06:20:05.234Z,59.61
2022-10-19T06:21:05.243Z,59.71
2022-10-19T06:22:05.210Z,56.36
2022-10-19T06:23:05.201Z,56.95
2022-10-19T06:24:05.200Z,53.58
2022-10-19T06:25:05.194Z,57.90
2022-10-19T06:26:05.219Z,57.99
2022-10-19T06:27:05.178Z,59.86
2022-10-19T06:28:05.168Z,54.17
2022-10-19T06:29:05.176Z,57.12
2022-10-19T06:30:05.147Z,56.55
2022-10-19T06:31:08.448Z,56.91
2022-10-19T06:32:05.131Z,58.99
2022-10-19T06:33:05.132Z,58.01
2022-10-19T06:34:05.193Z,55.61
2022-10-19T06:35:05.111Z,54.86
2022-10-19T06:36:05.140Z,55.83
2022-10-19T06:37:05.107Z,55.04
2022-10-19T06:38:05.087Z,55.26
2022-10-19T06:39:05.075Z,56.82
2022-10-19T06:40:07.205Z,56.08
2022-10-19T06:41:06.061Z,53.73
2022-10-19T06:42:05.065Z,57.76
2022-10-19T06:43:05.063Z,54.44
2022-10-19T06:44:05.046Z,57.40
2022-10-19T06:45:05.057Z,56.61
2022-10-19T06:46:05.026Z,53.57
2022-10-19T06:47:05.017Z,58.73
2022-10-19T06:48:07.538Z,56.24
2022-10-19T06:49:06.000Z,55.40
2022-10-19T06:50:05.004Z,59.38
2022-10-19T06:51:06.348Z,53.86
2022-10-19T06:52:05.987Z,53.08
2022-10-19T06:53:04.975Z,55.81
2022-10-19T06:54:04.965Z,51.42
2022-10-19T06:55:04.976Z,55.44
2022-10-19T06:56:04.982Z,56.40
2022-10-19T06:57:04.950Z,57.36
2022-10-19T06:58:04.940Z,56.40
2022-10-19T06:59:04.936Z,54.20
2022-10-19T07:00:04.958Z,56.78
2022-10-19T07:01:04.988Z,56.29
2022-10-19T07:02:04.913Z,55.43
2022-10-19T07:03:04.908Z,52.86
2022-10-19T07:04:04.901Z,57.40
2022-10-19T07:05:06.983Z,59.86
2022-10-19T07:06:05.909Z,62.21
2022-10-19T07:07:04.881Z,56.24
2022-10-19T07:08:04.907Z,56.89
2022-10-19T07:09:04.858Z,55.51
2022-10-19T07:10:04.854Z,53.37
2022-10-19T07:11:04.876Z,51.48
2022-10-19T07:12:04.836Z,55.16
2022-10-19T07:13:04.828Z,56.62
2022-10-19T07:14:04.820Z,58.54
2022-10-19T07:15:04.810Z,56.61
2022-10-19T07:16:05.000Z,59.91
2022-10-19T07:17:04.803Z,55.42
2022-10-19T07:18:04.804Z,58.24
2022-10-19T07:19:04.791Z,54.27
2022-10-19T07:20:04.795Z,52.52
2022-10-19T07:21:04.794Z,60.62
2022-10-19T07:22:04.758Z,56.27
2022-10-19T07:23:04.757Z,53.63
2022-10-19T07:24:04.746Z,47.40
2022-10-19T07:25:04.735Z,56.39
2022-10-19T07:26:04.753Z,57.23
2022-10-19T07:27:04.719Z,50.13
2022-10-19T07:28:04.713Z,51.26
2022-10-19T07:29:04.702Z,56.35
2022-10-19T07:30:04.704Z,58.70
2022-10-19T07:31:04.713Z,58.74
2022-10-19T07:32:04.679Z,53.58
2022-10-19T07:33:04.729Z,56.54
2022-10-19T07:34:04.665Z,55.16
2022-10-19T07:35:04.689Z,58.33
2022-10-19T07:36:04.671Z,54.05
2022-10-19T07:37:04.643Z,60.63
2022-10-19T07:38:04.649Z,58.46
2022-10-19T07:39:04.635Z,57.71
2022-10-19T07:40:04.670Z,57.16
2022-10-19T07:41:04.617Z,57.54
2022-10-19T07:42:04.615Z,56.68
2022-10-19T07:43:04.605Z,56.25
2022-10-19T07:44:04.591Z,57.35
2022-10-19T07:45:04.610Z,53.81
2022-10-19T07:46:04.589Z,57.07
2022-10-19T07:47:04.567Z,56.61
2022-10-19T07:48:04.564Z,56.85
2022-10-19T07:49:04.561Z,51.68
2022-10-19T07:50:04.568Z,57.49
2022-10-19T07:51:04.541Z,54.46
2022-10-19T07:52:04.533Z,56.74
2022-10-19T07:53:04.535Z,55.00
2022-10-19T07:54:04.526Z,55.69
2022-10-19T07:55:04.532Z,51.69
2022-10-19T07:56:04.507Z,58.22
2022-10-19T07:57:04.492Z,54.88
2022-10-19T07:58:04.482Z,56.80
2022-10-19T07:59:04.477Z,60.45
2022-10-19T08:00:04.502Z,59.80
2022-10-19T08:01:04.463Z,57.42
2022-10-19T08:02:04.538Z,57.86
2022-10-19T08:04:13.756Z,57.29
2022-10-19T08:05:10.485Z,58.81
2022-10-19T08:06:05.424Z,58.65
2022-10-19T08:07:04.428Z,60.57
2022-10-19T08:08:04.411Z,58.83
2022-10-19T08:09:04.455Z,58.72
2022-10-19T08:10:04.422Z,63.34
2022-10-19T08:11:04.390Z,60.50
2022-10-19T08:12:04.385Z,59.25
2022-10-19T08:13:04.384Z,58.31
2022-10-19T08:14:04.372Z,53.59
2022-10-19T08:15:04.385Z,57.41
2022-10-19T08:16:04.353Z,55.73
2022-10-19T08:17:04.342Z,61.78
2022-10-19T08:18:04.338Z,58.82
2022-10-19T08:19:04.336Z,58.96
2022-10-19T08:20:04.345Z,56.62
2022-10-19T08:21:04.328Z,58.63
2022-10-19T08:22:04.306Z,60.36
2022-10-19T08:23:04.314Z,56.55
2022-10-19T08:24:04.294Z,58.90
2022-10-19T08:25:04.305Z,56.45
2022-10-19T08:26:04.286Z,53.60
2022-10-19T08:27:04.270Z,56.64
2022-10-19T08:28:04.270Z,61.28
2022-10-19T08:29:04.254Z,57.14
2022-10-19T08:30:04.272Z,57.05
2022-10-19T08:31:04.242Z,54.23
2022-10-19T08:32:04.247Z,53.95
2022-10-19T08:33:04.229Z,55.82
2022-10-19T08:34:04.219Z,58.43
2022-10-19T08:35:08.444Z,55.20
2022-10-19T08:36:06.206Z,55.81
2022-10-19T08:37:10.483Z,54.19
2022-10-19T08:38:06.190Z,57.81
2022-10-19T08:39:04.184Z,55.30
2022-10-19T08:40:04.225Z,55.73
2022-10-19T08:41:04.166Z,53.73
2022-10-19T08:42:04.159Z,55.74
2022-10-19T08:43:04.151Z,54.97
2022-10-19T08:44:06.330Z,56.71
2022-10-19T08:45:05.162Z,60.00
2022-10-19T08:46:04.127Z,56.22
2022-10-19T08:47:06.063Z,54.92
2022-10-19T08:48:04.110Z,56.02
2022-10-19T08:49:04.105Z,54.95
2022-10-19T08:50:04.105Z,57.54
2022-10-19T08:51:04.117Z,54.52
2022-10-19T08:52:04.086Z,58.09
2022-10-19T08:53:04.069Z,52.84
2022-10-19T08:54:04.080Z,55.84
2022-10-19T08:55:04.055Z,58.59
2022-10-19T08:56:04.816Z,56.08
2022-10-19T08:57:04.041Z,58.01
2022-10-19T08:58:04.038Z,56.89
2022-10-19T08:59:04.025Z,52.10
2022-10-19T09:00:04.019Z,56.44
2022-10-19T09:01:04.069Z,56.61
2022-10-19T09:02:04.008Z,57.79
2022-10-19T09:03:03.992Z,54.16
2022-10-19T09:04:04.092Z,55.81
2022-10-19T09:05:03.975Z,57.63
2022-10-19T09:06:04.004Z,55.95
2022-10-19T09:07:03.968Z,55.51
2022-10-19T09:08:03.960Z,58.70
2022-10-19T09:09:04.017Z,54.00
2022-10-19T09:10:03.948Z,58.52
2022-10-19T09:11:03.966Z,53.17
2022-10-19T09:12:03.930Z,57.08
2022-10-19T09:13:03.929Z,55.60
2022-10-19T09:14:05.445Z,55.19
2022-10-19T09:15:04.913Z,56.57
2022-10-19T09:16:03.966Z,53.26
2022-10-19T09:17:03.893Z,55.51
2022-10-19T09:18:03.879Z,50.16
2022-10-19T09:19:03.884Z,61.99
2022-10-19T09:20:03.872Z,56.76
2022-10-19T09:21:03.891Z,56.92
2022-10-19T09:22:03.851Z,61.47
2022-10-19T09:23:03.877Z,53.27
2022-10-19T09:24:03.838Z,57.26
2022-10-19T09:25:03.830Z,57.88
2022-10-19T09:26:03.847Z,61.49
2022-10-19T09:27:03.809Z,58.73
2022-10-19T09:28:03.843Z,56.70
2022-10-19T09:29:03.800Z,52.82
2022-10-19T09:30:03.829Z,57.92
2022-10-19T09:31:03.831Z,61.75
2022-10-19T09:32:03.785Z,59.75
2022-10-19T09:33:03.773Z,54.77
2022-10-19T09:34:03.762Z,53.45
2022-10-19T09:35:03.757Z,57.90
2022-10-19T09:36:03.758Z,54.39
2022-10-19T09:37:03.778Z,53.28
2022-10-19T09:38:03.737Z,57.10
2022-10-19T09:39:03.718Z,56.23
2022-10-19T09:40:03.744Z,52.17
2022-10-19T09:41:03.738Z,57.73
2022-10-19T09:42:03.703Z,56.18
2022-10-19T09:43:03.693Z,57.16
2022-10-19T09:44:03.700Z,57.04
2022-10-19T09:45:03.674Z,61.38
2022-10-19T09:46:07.845Z,59.06
2022-10-19T09:47:07.143Z,54.31
2022-10-19T09:48:07.215Z,57.20
2022-10-19T09:49:05.645Z,54.79
2022-10-19T09:50:03.696Z,55.71
2022-10-19T09:51:03.660Z,57.17
2022-10-19T09:52:04.628Z,58.74
2022-10-19T09:53:03.617Z,57.97
2022-10-19T09:54:03.606Z,56.14
2022-10-19T09:55:03.604Z,57.96
2022-10-19T09:56:03.621Z,56.01
2022-10-19T09:57:03.599Z,57.01
2022-10-19T09:58:03.579Z,56.88
2022-10-19T09:59:03.580Z,54.93
2022-10-19T10:00:03.568Z,56.30
2022-10-19T10:01:03.590Z,55.39
2022-10-19T10:03:03.538Z,57.24
2022-10-19T10:04:03.539Z,61.71
2022-10-19T10:05:03.535Z,62.49
2022-10-19T10:06:03.565Z,56.98
2022-10-19T10:07:03.517Z,59.52
2022-10-19T10:08:03.507Z,56.58
2022-10-19T10:09:04.578Z,57.86
2022-10-19T10:10:03.488Z,55.90
2022-10-19T10:11:03.514Z,55.58
2022-10-19T10:12:03.481Z,57.82
2022-10-19T10:13:03.469Z,55.42
2022-10-19T10:14:05.041Z,54.48
2022-10-19T10:15:05.448Z,56.83
2022-10-19T10:16:03.473Z,56.70
2022-10-19T10:17:03.516Z,58.33
2022-10-19T10:18:03.429Z,56.39
2022-10-19T10:19:03.421Z,54.77
2022-10-19T10:20:03.427Z,55.63
2022-10-19T10:21:05.821Z,55.97
2022-10-19T10:22:03.401Z,56.43
2022-10-19T10:23:03.399Z,58.82
2022-10-19T10:24:03.396Z,49.09
2022-10-19T10:25:03.390Z,55.38
2022-10-19T10:26:03.408Z,57.05
2022-10-19T10:27:03.488Z,55.51
2022-10-19T10:28:03.366Z,56.72
2022-10-19T10:29:03.353Z,56.56
2022-10-19T10:30:03.349Z,55.73
2022-10-19T10:31:03.366Z,57.51
2022-10-19T10:32:03.347Z,60.21
2022-10-19T10:33:13.210Z,59.58
2022-10-19T10:34:16.278Z,56.88
2022-10-19T10:35:04.311Z,62.20
2022-10-19T10:36:03.335Z,57.69
2022-10-19T10:37:03.313Z,55.39
2022-10-19T10:38:03.281Z,58.03
2022-10-19T10:40:04.810Z,54.76
2022-10-19T10:41:04.280Z,58.67
2022-10-19T10:42:03.258Z,57.87
2022-10-19T10:43:03.250Z,57.88
2022-10-19T10:44:04.767Z,56.98
2022-10-19T10:45:03.223Z,58.23
2022-10-19T10:46:04.265Z,56.89
2022-10-19T10:47:03.287Z,56.46
2022-10-19T10:48:03.250Z,57.32
2022-10-19T10:49:03.212Z,58.56
2022-10-19T10:50:03.190Z,55.25
2022-10-19T10:51:03.217Z,55.82
2022-10-19T10:52:03.173Z,57.51
2022-10-19T10:53:03.164Z,56.68
2022-10-19T10:54:03.170Z,58.07
2022-10-19T10:55:03.147Z,57.70
2022-10-19T10:56:03.143Z,58.30
2022-10-19T10:57:05.585Z,58.26
2022-10-19T10:58:03.133Z,59.39
2022-10-19T10:59:03.123Z,59.33
2022-10-19T11:00:03.117Z,62.14
2022-10-19T11:01:06.688Z,57.71
2022-10-19T11:02:03.172Z,56.49
2022-10-19T11:03:03.101Z,57.67
2022-10-19T11:04:03.099Z,63.33
2022-10-19T11:05:03.075Z,58.19
2022-10-19T11:06:03.068Z,58.05
2022-10-19T11:07:03.144Z,58.28
2022-10-19T11:08:03.053Z,57.84
2022-10-19T11:09:03.102Z,58.79
2022-10-19T11:10:03.039Z,59.15
2022-10-19T11:11:03.041Z,57.01
2022-10-19T11:12:03.049Z,57.89
2022-10-19T11:13:03.014Z,59.80
2022-10-19T11:14:03.009Z,60.81
2022-10-19T11:15:02.991Z,61.66
2022-10-19T11:16:02.991Z,60.56
2022-10-19T11:17:03.026Z,60.28
2022-10-19T11:18:02.975Z,58.87
2022-10-19T11:19:03.020Z,57.54
2022-10-19T11:20:02.964Z,56.88
2022-10-19T11:21:02.955Z,59.91
2022-10-19T11:22:02.973Z,58.12
2022-10-19T11:23:02.937Z,59.12
2022-10-19T11:24:02.936Z,58.64
2022-10-19T11:25:02.925Z,56.49
2022-10-19T11:26:02.924Z,58.42
2022-10-19T11:27:02.979Z,56.31
2022-10-19T11:28:02.904Z,59.33
2022-10-19T11:29:02.886Z,56.16
2022-10-19T11:30:02.884Z,63.30
2022-10-19T11:31:02.881Z,59.06
2022-10-19T11:32:02.899Z,56.55
2022-10-19T11:33:02.862Z,58.60
2022-10-19T11:34:02.856Z,60.31
2022-10-19T11:35:02.852Z,58.12
2022-10-19T11:36:02.838Z,57.52
2022-10-19T11:37:02.879Z,64.25
2022-10-19T11:38:21.158Z,58.98
2022-10-19T11:39:04.814Z,59.62
2022-10-19T11:40:02.808Z,59.36
2022-10-19T11:41:17.462Z,57.13
2022-10-19T11:42:04.818Z,57.96
2022-10-19T11:43:02.789Z,58.30
2022-10-19T11:44:02.792Z,55.42
2022-10-19T11:45:02.782Z,59.22
2022-10-19T11:46:02.777Z,58.68
2022-10-19T11:47:02.858Z,63.07
2022-10-19T11:48:02.761Z,57.37
2022-10-19T11:49:02.759Z,58.11
2022-10-19T11:50:02.758Z,59.13
2022-10-19T11:51:17.471Z,58.17
2022-10-19T11:52:04.742Z,56.63
2022-10-19T11:53:02.709Z,58.32
2022-10-19T11:54:02.703Z,57.39
2022-10-19T11:55:02.694Z,56.50
2022-10-19T11:56:02.681Z,57.92
2022-10-19T11:57:05.568Z,54.65
2022-10-19T11:58:03.678Z,56.37
2022-10-19T11:59:02.733Z,56.87
2022-10-19T12:00:13.911Z,51.24
2022-10-19T12:01:04.647Z,58.91
2022-10-19T12:02:02.727Z,56.99
2022-10-19T12:03:03.871Z,55.53
2022-10-19T12:04:03.623Z,58.80
2022-10-19T12:05:02.636Z,56.66
2022-10-19T12:06:02.618Z,59.18
2022-10-19T12:07:02.655Z,58.91
2022-10-19T12:08:02.610Z,56.98
2022-10-19T12:09:02.632Z,58.77
2022-10-19T12:10:02.597Z,59.92
2022-10-19T12:11:02.581Z,56.06
2022-10-19T12:12:02.621Z,58.84
2022-10-19T12:13:02.579Z,58.07
2022-10-19T12:14:02.566Z,56.54
2022-10-19T12:15:02.550Z,59.11
2022-10-19T12:16:02.568Z,57.32
2022-10-19T12:17:02.675Z,57.98
2022-10-19T12:18:02.542Z,57.53
2022-10-19T12:19:02.532Z,55.70
2022-10-19T12:20:02.521Z,59.40
2022-10-19T12:21:02.504Z,57.64
2022-10-19T12:22:02.498Z,55.18
2022-10-19T12:23:02.513Z,55.96
2022-10-19T12:24:02.493Z,59.17
2022-10-19T12:25:02.478Z,59.03
2022-10-19T12:26:02.485Z,60.51
2022-10-19T12:27:02.460Z,59.36
2022-10-19T12:28:02.477Z,56.89
2022-10-19T12:29:02.459Z,56.72
2022-10-19T12:30:02.450Z,58.20
2022-10-19T12:31:02.438Z,58.28
2022-10-19T12:32:02.417Z,55.98
2022-10-19T12:33:02.445Z,56.42
2022-10-19T12:34:02.409Z,57.42
2022-10-19T12:35:02.414Z,61.20
2022-10-19T12:36:02.389Z,58.08
2022-10-19T12:37:02.389Z,58.63
2022-10-19T12:38:02.409Z,58.49
2022-10-19T12:39:02.380Z,58.52
2022-10-19T12:40:02.364Z,61.82
2022-10-19T12:41:02.358Z,58.71
2022-10-19T12:42:02.350Z,56.24
2022-10-19T12:43:02.363Z,56.93
2022-10-19T12:44:02.360Z,59.52
2022-10-19T12:45:02.329Z,61.14
2022-10-19T12:46:03.347Z,60.68
2022-10-19T12:47:02.345Z,59.91
2022-10-19T12:48:02.333Z,59.70
2022-10-19T12:49:02.299Z,59.25
2022-10-19T12:50:02.278Z,59.08
2022-10-19T12:51:02.277Z,58.72
2022-10-19T12:52:02.264Z,61.32
2022-10-19T12:53:02.279Z,59.02
2022-10-19T12:54:02.243Z,59.86
2022-10-19T12:55:02.248Z,58.20